sensor_id;sensor_type;location;lat;lon;timestamp;pressure;altitude;pressure_sealevel;temperature;humidity
44839;BME280;30576;42.098;24.876;2023-05-16T00:00:32;99588.19;;;15.59;88.63
44839;BME280;30576;42.098;24.876;2023-05-16T00:02:59;99591.31;;;15.47;89.24
44839;BME280;30576;42.098;24.876;2023-05-16T00:05:25;99578.88;;;15.47;88.95
44839;BME280;30576;42.098;24.876;2023-05-16T00:07:50;99585.34;;;15.64;87.83
44839;BME280;30576;42.098;24.876;2023-05-16T00:10:16;99579.59;;;15.52;87.72
44839;BME280;30576;42.098;24.876;2023-05-16T00:12:41;99581.47;;;15.49;88.11
44839;BME280;30576;42.098;24.876;2023-05-16T00:15:09;99585.81;;;15.28;89.18
44839;BME280;30576;42.098;24.876;2023-05-16T00:17:36;99578.56;;;15.31;89.63
44839;BME280;30576;42.098;24.876;2023-05-16T00:20:02;99581.69;;;15.43;88.99
44839;BME280;30576;42.098;24.876;2023-05-16T00:22:35;99573.88;;;15.38;89.13
44839;BME280;30576;42.098;24.876;2023-05-16T00:25:00;99577.81;;;15.28;89.76
44839;BME280;30576;42.098;24.876;2023-05-16T00:27:26;99580.38;;;15.31;89.51
44839;BME280;30576;42.098;24.876;2023-05-16T00:29:51;99578.97;;;15.44;88.55
44839;BME280;30576;42.098;24.876;2023-05-16T00:32:16;99579.00;;;15.19;89.27
44839;BME280;30576;42.098;24.876;2023-05-16T00:34:42;99569.19;;;15.21;89.95
44839;BME280;30576;42.098;24.876;2023-05-16T00:37:08;99572.47;;;15.29;89.54
44839;BME280;30576;42.098;24.876;2023-05-16T00:39:33;99573.66;;;15.20;89.20
44839;BME280;30576;42.098;24.876;2023-05-16T00:41:58;99569.91;;;15.26;89.38
44839;BME280;30576;42.098;24.876;2023-05-16T00:44:24;99562.84;;;15.25;89.45
44839;BME280;30576;42.098;24.876;2023-05-16T00:46:49;99565.50;;;15.25;88.75
44839;BME280;30576;42.098;24.876;2023-05-16T00:49:14;99572.41;;;15.31;89.01
44839;BME280;30576;42.098;24.876;2023-05-16T00:51:40;99555.91;;;15.21;89.77
44839;BME280;30576;42.098;24.876;2023-05-16T00:54:05;99562.50;;;15.34;89.18
44839;BME280;30576;42.098;24.876;2023-05-16T00:56:31;99572.81;;;15.44;88.10
44839;BME280;30576;42.098;24.876;2023-05-16T00:58:57;99569.47;;;15.38;89.10
44839;BME280;30576;42.098;24.876;2023-05-16T01:01:24;99565.56;;;15.47;88.54
44839;BME280;30576;42.098;24.876;2023-05-16T01:03:49;99559.84;;;15.34;88.75
44839;BME280;30576;42.098;24.876;2023-05-16T01:06:15;99557.31;;;15.31;88.89
44839;BME280;30576;42.098;24.876;2023-05-16T01:08:40;99561.72;;;15.32;88.95
44839;BME280;30576;42.098;24.876;2023-05-16T01:16:35;99547.34;;;15.13;89.94
44839;BME280;30576;42.098;24.876;2023-05-16T01:24:33;99540.91;;;15.20;89.38
44839;BME280;30576;42.098;24.876;2023-05-16T01:26:59;99531.31;;;15.16;89.11
44839;BME280;30576;42.098;24.876;2023-05-16T01:29:24;99544.97;;;15.05;89.76
44839;BME280;30576;42.098;24.876;2023-05-16T01:31:50;99544.66;;;15.14;89.84
44839;BME280;30576;42.098;24.876;2023-05-16T01:34:15;99545.88;;;15.04;90.19
44839;BME280;30576;42.098;24.876;2023-05-16T01:36:47;99537.25;;;15.22;89.76
44839;BME280;30576;42.098;24.876;2023-05-16T01:39:29;99531.72;;;15.29;89.33
44839;BME280;30576;42.098;24.876;2023-05-16T01:42:02;99527.91;;;15.12;90.01
44839;BME280;30576;42.098;24.876;2023-05-16T01:46:57;99523.88;;;15.00;90.53
44839;BME280;30576;42.098;24.876;2023-05-16T01:51:53;99528.28;;;15.01;90.35
44839;BME280;30576;42.098;24.876;2023-05-16T01:54:20;99520.22;;;15.04;90.52
44839;BME280;30576;42.098;24.876;2023-05-16T01:56:50;99513.84;;;15.09;89.96
44839;BME280;30576;42.098;24.876;2023-05-16T01:59:16;99510.09;;;15.14;89.74
44839;BME280;30576;42.098;24.876;2023-05-16T02:01:42;99503.16;;;15.10;89.84
44839;BME280;30576;42.098;24.876;2023-05-16T02:04:07;99494.44;;;15.07;90.21
44839;BME280;30576;42.098;24.876;2023-05-16T02:06:33;99500.03;;;14.99;90.36
44839;BME280;30576;42.098;24.876;2023-05-16T02:08:58;99495.47;;;15.02;90.22
44839;BME280;30576;42.098;24.876;2023-05-16T02:11:24;99496.13;;;15.09;89.75
44839;BME280;30576;42.098;24.876;2023-05-16T02:13:50;99483.06;;;15.03;89.71
44839;BME280;30576;42.098;24.876;2023-05-16T02:16:15;99484.09;;;14.99;89.48
44839;BME280;30576;42.098;24.876;2023-05-16T02:18:40;99484.22;;;14.96;89.61
44839;BME280;30576;42.098;24.876;2023-05-16T02:21:06;99481.66;;;14.93;89.71
44839;BME280;30576;42.098;24.876;2023-05-16T02:23:31;99488.22;;;14.82;89.88
44839;BME280;30576;42.098;24.876;2023-05-16T02:25:57;99488.16;;;14.84;89.84
44839;BME280;30576;42.098;24.876;2023-05-16T02:28:22;99479.28;;;14.85;89.44
44839;BME280;30576;42.098;24.876;2023-05-16T02:30:54;99494.16;;;14.91;89.27
44839;BME280;30576;42.098;24.876;2023-05-16T02:33:20;99490.53;;;14.92;89.14
44839;BME280;30576;42.098;24.876;2023-05-16T02:35:45;99482.53;;;14.93;89.22
44839;BME280;30576;42.098;24.876;2023-05-16T02:38:11;99479.94;;;14.92;88.65
44839;BME280;30576;42.098;24.876;2023-05-16T02:40:41;99482.75;;;14.87;88.76
44839;BME280;30576;42.098;24.876;2023-05-16T02:43:06;99480.03;;;14.89;88.47
44839;BME280;30576;42.098;24.876;2023-05-16T02:45:32;99478.44;;;14.84;88.71
44839;BME280;30576;42.098;24.876;2023-05-16T02:47:57;99467.75;;;14.86;88.41
44839;BME280;30576;42.098;24.876;2023-05-16T02:50:22;99466.91;;;14.84;89.12
44839;BME280;30576;42.098;24.876;2023-05-16T02:52:47;99469.97;;;14.73;89.00
44839;BME280;30576;42.098;24.876;2023-05-16T02:55:13;99469.09;;;14.73;88.74
44839;BME280;30576;42.098;24.876;2023-05-16T02:57:38;99465.66;;;14.71;88.97
44839;BME280;30576;42.098;24.876;2023-05-16T03:00:04;99457.00;;;14.64;89.07
44839;BME280;30576;42.098;24.876;2023-05-16T03:02:30;99474.00;;;14.58;89.50
44839;BME280;30576;42.098;24.876;2023-05-16T03:04:55;99478.25;;;14.64;89.76
44839;BME280;30576;42.098;24.876;2023-05-16T03:07:20;99490.63;;;14.65;89.24
44839;BME280;30576;42.098;24.876;2023-05-16T03:09:46;99481.84;;;14.63;88.70
44839;BME280;30576;42.098;24.876;2023-05-16T03:12:11;99496.56;;;14.72;88.39
44839;BME280;30576;42.098;24.876;2023-05-16T03:14:36;99495.88;;;14.66;88.45
44839;BME280;30576;42.098;24.876;2023-05-16T03:17:02;99494.03;;;14.68;88.07
44839;BME280;30576;42.098;24.876;2023-05-16T03:19:27;99498.53;;;14.66;88.45
44839;BME280;30576;42.098;24.876;2023-05-16T03:21:53;99499.13;;;14.75;87.92
44839;BME280;30576;42.098;24.876;2023-05-16T03:24:18;99501.59;;;14.79;88.17
44839;BME280;30576;42.098;24.876;2023-05-16T03:26:45;99493.81;;;14.75;88.26
44839;BME280;30576;42.098;24.876;2023-05-16T03:29:10;99502.66;;;14.75;88.44
44839;BME280;30576;42.098;24.876;2023-05-16T03:31:36;99504.25;;;14.79;88.40
44839;BME280;30576;42.098;24.876;2023-05-16T03:34:01;99502.59;;;14.77;88.53
44839;BME280;30576;42.098;24.876;2023-05-16T03:36:26;99505.22;;;14.78;88.39
44839;BME280;30576;42.098;24.876;2023-05-16T03:38:52;99496.06;;;14.85;87.74
44839;BME280;30576;42.098;24.876;2023-05-16T03:41:18;99491.44;;;14.92;87.52
44839;BME280;30576;42.098;24.876;2023-05-16T03:43:43;99495.91;;;14.90;87.84
44839;BME280;30576;42.098;24.876;2023-05-16T03:46:08;99496.59;;;14.97;87.59
44839;BME280;30576;42.098;24.876;2023-05-16T03:48:34;99500.19;;;14.94;88.07
44839;BME280;30576;42.098;24.876;2023-05-16T03:50:59;99507.22;;;14.97;88.60
44839;BME280;30576;42.098;24.876;2023-05-16T03:53:24;99518.78;;;14.94;89.15
44839;BME280;30576;42.098;24.876;2023-05-16T03:55:50;99518.47;;;15.03;89.54
44839;BME280;30576;42.098;24.876;2023-05-16T03:58:15;99519.09;;;15.10;89.57
44839;BME280;30576;42.098;24.876;2023-05-16T04:00:41;99515.88;;;15.02;88.97
44839;BME280;30576;42.098;24.876;2023-05-16T04:03:06;99509.03;;;15.20;89.47
44839;BME280;30576;42.098;24.876;2023-05-16T04:05:32;99511.44;;;15.26;88.71
44839;BME280;30576;42.098;24.876;2023-05-16T04:07:58;99507.63;;;15.33;88.95
44839;BME280;30576;42.098;24.876;2023-05-16T04:10:23;99505.56;;;15.42;87.95
44839;BME280;30576;42.098;24.876;2023-05-16T04:12:48;99497.75;;;15.37;88.43
44839;BME280;30576;42.098;24.876;2023-05-16T04:15:14;99502.38;;;15.55;87.71
44839;BME280;30576;42.098;24.876;2023-05-16T04:17:39;99500.81;;;15.50;88.25
44839;BME280;30576;42.098;24.876;2023-05-16T04:20:05;99498.94;;;15.52;88.14
44839;BME280;30576;42.098;24.876;2023-05-16T04:22:31;99497.91;;;15.56;87.83
44839;BME280;30576;42.098;24.876;2023-05-16T04:24:56;99497.19;;;15.74;87.21
44839;BME280;30576;42.098;24.876;2023-05-16T04:27:22;99500.72;;;15.75;85.74
44839;BME280;30576;42.098;24.876;2023-05-16T04:29:48;99503.56;;;15.70;85.08
44839;BME280;30576;42.098;24.876;2023-05-16T04:32:13;99501.78;;;15.71;84.98
44839;BME280;30576;42.098;24.876;2023-05-16T04:34:39;99488.38;;;15.74;85.13
44839;BME280;30576;42.098;24.876;2023-05-16T04:37:05;99493.25;;;15.85;84.08
44839;BME280;30576;42.098;24.876;2023-05-16T04:39:31;99498.91;;;15.77;84.69
44839;BME280;30576;42.098;24.876;2023-05-16T04:41:57;99497.84;;;15.81;84.66
44839;BME280;30576;42.098;24.876;2023-05-16T04:44:23;99501.78;;;15.71;85.17
44839;BME280;30576;42.098;24.876;2023-05-16T04:46:49;99512.75;;;15.85;84.34
44839;BME280;30576;42.098;24.876;2023-05-16T04:49:14;99510.28;;;15.81;84.43
44839;BME280;30576;42.098;24.876;2023-05-16T04:51:39;99508.25;;;15.87;84.09
44839;BME280;30576;42.098;24.876;2023-05-16T04:54:05;99508.84;;;15.94;83.95
44839;BME280;30576;42.098;24.876;2023-05-16T04:56:30;99510.38;;;16.22;82.77
44839;BME280;30576;42.098;24.876;2023-05-16T04:58:56;99508.78;;;16.40;82.43
44839;BME280;30576;42.098;24.876;2023-05-16T05:01:21;99507.03;;;16.39;81.69
44839;BME280;30576;42.098;24.876;2023-05-16T05:03:46;99509.75;;;16.59;81.50
44839;BME280;30576;42.098;24.876;2023-05-16T05:06:11;99502.72;;;16.57;80.81
44839;BME280;30576;42.098;24.876;2023-05-16T05:08:37;99502.94;;;16.73;79.53
44839;BME280;30576;42.098;24.876;2023-05-16T05:11:02;99511.88;;;16.72;80.35
44839;BME280;30576;42.098;24.876;2023-05-16T05:13:27;99507.19;;;16.77;80.66
44839;BME280;30576;42.098;24.876;2023-05-16T05:15:53;99516.56;;;16.87;81.04
44839;BME280;30576;42.098;24.876;2023-05-16T05:18:18;99522.06;;;16.82;81.50
44839;BME280;30576;42.098;24.876;2023-05-16T05:20:44;99521.91;;;16.87;80.90
44839;BME280;30576;42.098;24.876;2023-05-16T05:23:09;99518.00;;;16.94;80.17
44839;BME280;30576;42.098;24.876;2023-05-16T05:25:34;99511.09;;;16.90;78.16
44839;BME280;30576;42.098;24.876;2023-05-16T05:28:00;99508.63;;;17.06;77.63
44839;BME280;30576;42.098;24.876;2023-05-16T05:30:25;99508.06;;;17.18;78.14
44839;BME280;30576;42.098;24.876;2023-05-16T05:32:50;99507.84;;;17.23;77.89
44839;BME280;30576;42.098;24.876;2023-05-16T05:35:17;99506.38;;;17.16;76.52
44839;BME280;30576;42.098;24.876;2023-05-16T05:37:42;99507.50;;;17.31;76.16
44839;BME280;30576;42.098;24.876;2023-05-16T05:40:08;99500.09;;;17.38;75.26
44839;BME280;30576;42.098;24.876;2023-05-16T05:42:33;99495.28;;;17.46;75.06
44839;BME280;30576;42.098;24.876;2023-05-16T05:44:58;99501.03;;;17.36;75.80
44839;BME280;30576;42.098;24.876;2023-05-16T05:47:23;99494.59;;;17.22;76.17
44839;BME280;30576;42.098;24.876;2023-05-16T05:49:49;99489.31;;;17.01;77.33
44839;BME280;30576;42.098;24.876;2023-05-16T05:52:14;99482.03;;;17.05;77.17
44839;BME280;30576;42.098;24.876;2023-05-16T05:54:40;99484.16;;;17.17;76.75
44839;BME280;30576;42.098;24.876;2023-05-16T05:57:05;99484.16;;;17.17;77.11
44839;BME280;30576;42.098;24.876;2023-05-16T05:59:31;99488.69;;;17.15;76.88
44839;BME280;30576;42.098;24.876;2023-05-16T06:01:56;99493.25;;;17.32;75.95
44839;BME280;30576;42.098;24.876;2023-05-16T06:04:22;99497.63;;;17.33;76.29
44839;BME280;30576;42.098;24.876;2023-05-16T06:06:47;99503.16;;;17.28;76.66
44839;BME280;30576;42.098;24.876;2023-05-16T06:09:12;99504.75;;;17.13;77.14
44839;BME280;30576;42.098;24.876;2023-05-16T06:11:39;99491.34;;;17.15;76.88
44839;BME280;30576;42.098;24.876;2023-05-16T06:26:27;99515.66;;;17.47;76.29
44839;BME280;30576;42.098;24.876;2023-05-16T06:28:52;99485.03;;;17.36;76.32
44839;BME280;30576;42.098;24.876;2023-05-16T06:31:18;99506.00;;;17.44;75.90
44839;BME280;30576;42.098;24.876;2023-05-16T06:33:43;99494.41;;;17.45;75.36
44839;BME280;30576;42.098;24.876;2023-05-16T06:36:09;99480.63;;;17.35;76.08
44839;BME280;30576;42.098;24.876;2023-05-16T06:38:35;99481.06;;;17.45;75.93
44839;BME280;30576;42.098;24.876;2023-05-16T06:41:00;99491.59;;;17.67;75.54
44839;BME280;30576;42.098;24.876;2023-05-16T06:43:25;99480.41;;;17.59;75.14
44839;BME280;30576;42.098;24.876;2023-05-16T06:45:51;99461.41;;;17.48;75.73
44839;BME280;30576;42.098;24.876;2023-05-16T06:48:17;99438.69;;;17.20;75.69
44839;BME280;30576;42.098;24.876;2023-05-16T06:50:48;99433.50;;;17.17;76.21
44839;BME280;30576;42.098;24.876;2023-05-16T06:53:13;99450.56;;;17.13;76.55
44839;BME280;30576;42.098;24.876;2023-05-16T06:55:39;99465.41;;;17.18;77.22
44839;BME280;30576;42.098;24.876;2023-05-16T06:58:04;99448.06;;;17.29;76.63
44839;BME280;30576;42.098;24.876;2023-05-16T07:00:29;99445.53;;;17.45;77.23
44839;BME280;30576;42.098;24.876;2023-05-16T07:02:55;99450.34;;;17.75;76.13
44839;BME280;30576;42.098;24.876;2023-05-16T07:05:20;99435.66;;;17.66;75.61
44839;BME280;30576;42.098;24.876;2023-05-16T07:07:46;99452.47;;;17.85;74.98
44839;BME280;30576;42.098;24.876;2023-05-16T07:10:13;99445.09;;;17.92;74.93
44839;BME280;30576;42.098;24.876;2023-05-16T07:12:40;99450.59;;;18.06;74.99
44839;BME280;30576;42.098;24.876;2023-05-16T07:15:07;99437.75;;;18.32;74.35
44839;BME280;30576;42.098;24.876;2023-05-16T07:17:33;99463.72;;;18.81;73.77
44839;BME280;30576;42.098;24.876;2023-05-16T07:19:58;99448.44;;;18.85;72.10
44839;BME280;30576;42.098;24.876;2023-05-16T07:22:24;99422.97;;;18.60;70.38
44839;BME280;30576;42.098;24.876;2023-05-16T07:24:49;99429.94;;;18.63;71.50
44839;BME280;30576;42.098;24.876;2023-05-16T07:27:17;99451.00;;;18.69;71.15
44839;BME280;30576;42.098;24.876;2023-05-16T07:29:42;99429.16;;;18.95;69.90
44839;BME280;30576;42.098;24.876;2023-05-16T07:32:08;99429.00;;;18.99;70.43
44839;BME280;30576;42.098;24.876;2023-05-16T07:34:34;99408.56;;;18.80;71.20
44839;BME280;30576;42.098;24.876;2023-05-16T07:36:59;99429.72;;;18.85;70.83
44839;BME280;30576;42.098;24.876;2023-05-16T07:39:25;99433.56;;;18.79;71.33
44839;BME280;30576;42.098;24.876;2023-05-16T07:41:50;99402.69;;;18.91;70.39
44839;BME280;30576;42.098;24.876;2023-05-16T07:44:16;99405.41;;;18.72;70.69
44839;BME280;30576;42.098;24.876;2023-05-16T07:46:41;99430.38;;;19.06;70.17
44839;BME280;30576;42.098;24.876;2023-05-16T07:49:09;99389.16;;;19.10;69.32
44839;BME280;30576;42.098;24.876;2023-05-16T07:51:34;99423.88;;;19.43;69.58
44839;BME280;30576;42.098;24.876;2023-05-16T07:54:00;99391.00;;;19.09;69.90
44839;BME280;30576;42.098;24.876;2023-05-16T07:56:26;99402.19;;;18.83;71.58
44839;BME280;30576;42.098;24.876;2023-05-16T07:58:51;99413.69;;;18.85;72.46
44839;BME280;30576;42.098;24.876;2023-05-16T08:01:17;99413.19;;;18.76;71.88
44839;BME280;30576;42.098;24.876;2023-05-16T08:03:43;99404.84;;;19.00;72.20
44839;BME280;30576;42.098;24.876;2023-05-16T08:06:08;99408.53;;;18.98;73.42
44839;BME280;30576;42.098;24.876;2023-05-16T08:08:34;99398.66;;;18.82;73.47
44839;BME280;30576;42.098;24.876;2023-05-16T08:11:00;99391.88;;;18.59;72.94
44839;BME280;30576;42.098;24.876;2023-05-16T08:13:25;99397.72;;;18.66;73.24
44839;BME280;30576;42.098;24.876;2023-05-16T08:15:50;99411.94;;;18.84;73.48
44839;BME280;30576;42.098;24.876;2023-05-16T08:18:16;99385.06;;;18.36;74.01
44839;BME280;30576;42.098;24.876;2023-05-16T08:20:41;99397.91;;;18.63;74.29
44839;BME280;30576;42.098;24.876;2023-05-16T08:23:08;99396.69;;;18.86;72.84
44839;BME280;30576;42.098;24.876;2023-05-16T08:25:34;99389.59;;;18.51;72.96
44839;BME280;30576;42.098;24.876;2023-05-16T08:27:59;99398.47;;;18.52;73.26
44839;BME280;30576;42.098;24.876;2023-05-16T08:30:27;99389.78;;;18.64;72.95
44839;BME280;30576;42.098;24.876;2023-05-16T08:32:52;99380.44;;;18.73;72.52
44839;BME280;30576;42.098;24.876;2023-05-16T08:35:18;99387.69;;;18.71;73.59
44839;BME280;30576;42.098;24.876;2023-05-16T08:37:43;99370.59;;;18.73;72.79
44839;BME280;30576;42.098;24.876;2023-05-16T08:40:09;99376.13;;;18.70;73.14
44839;BME280;30576;42.098;24.876;2023-05-16T08:42:36;99359.66;;;18.95;71.56
44839;BME280;30576;42.098;24.876;2023-05-16T08:45:02;99403.50;;;19.25;71.47
44839;BME280;30576;42.098;24.876;2023-05-16T08:47:30;99399.09;;;19.56;70.71
44839;BME280;30576;42.098;24.876;2023-05-16T08:49:57;99369.72;;;19.86;68.62
44839;BME280;30576;42.098;24.876;2023-05-16T08:52:25;99369.09;;;19.97;68.79
44839;BME280;30576;42.098;24.876;2023-05-16T08:54:52;99352.28;;;20.39;69.53
44839;BME280;30576;42.098;24.876;2023-05-16T08:57:19;99371.09;;;20.83;65.98
44839;BME280;30576;42.098;24.876;2023-05-16T08:59:45;99355.41;;;20.77;64.50
44839;BME280;30576;42.098;24.876;2023-05-16T09:02:11;99361.81;;;21.03;63.31
44839;BME280;30576;42.098;24.876;2023-05-16T09:04:37;99368.31;;;20.84;64.67
44839;BME280;30576;42.098;24.876;2023-05-16T09:07:03;99374.34;;;20.73;64.42
44839;BME280;30576;42.098;24.876;2023-05-16T09:09:28;99372.13;;;20.80;63.69
44839;BME280;30576;42.098;24.876;2023-05-16T09:11:55;99382.00;;;20.94;63.72
44839;BME280;30576;42.098;24.876;2023-05-16T09:14:20;99367.63;;;21.09;64.01
44839;BME280;30576;42.098;24.876;2023-05-16T09:17:03;99365.53;;;20.86;63.32
44839;BME280;30576;42.098;24.876;2023-05-16T09:19:36;99342.09;;;20.75;63.80
44839;BME280;30576;42.098;24.876;2023-05-16T09:22:02;99377.13;;;21.01;64.79
44839;BME280;30576;42.098;24.876;2023-05-16T09:24:28;99381.53;;;20.87;64.36
44839;BME280;30576;42.098;24.876;2023-05-16T09:26:53;99358.16;;;20.61;64.46
44839;BME280;30576;42.098;24.876;2023-05-16T09:29:19;99376.09;;;20.74;64.79
44839;BME280;30576;42.098;24.876;2023-05-16T09:31:44;99333.00;;;20.78;64.89
44839;BME280;30576;42.098;24.876;2023-05-16T09:34:10;99350.22;;;20.88;65.21
44839;BME280;30576;42.098;24.876;2023-05-16T09:36:37;99304.16;;;20.38;67.47
44839;BME280;30576;42.098;24.876;2023-05-16T09:39:02;99319.63;;;20.18;68.47
44839;BME280;30576;42.098;24.876;2023-05-16T09:41:32;99304.34;;;20.35;69.73
44839;BME280;30576;42.098;24.876;2023-05-16T09:43:58;99341.31;;;20.87;66.91
44839;BME280;30576;42.098;24.876;2023-05-16T09:46:26;99325.31;;;21.00;65.34
44839;BME280;30576;42.098;24.876;2023-05-16T09:48:53;99319.84;;;21.02;65.97
44839;BME280;30576;42.098;24.876;2023-05-16T09:51:21;99308.44;;;21.13;66.92
44839;BME280;30576;42.098;24.876;2023-05-16T09:53:47;99308.34;;;21.41;63.84
44839;BME280;30576;42.098;24.876;2023-05-16T09:56:13;99282.94;;;21.20;63.34
44839;BME280;30576;42.098;24.876;2023-05-16T09:58:42;99309.00;;;21.45;62.66
44839;BME280;30576;42.098;24.876;2023-05-16T10:01:09;99328.88;;;21.70;63.76
44839;BME280;30576;42.098;24.876;2023-05-16T10:03:36;99350.16;;;21.86;63.68
44839;BME280;30576;42.098;24.876;2023-05-16T10:06:03;99334.88;;;21.73;66.19
44839;BME280;30576;42.098;24.876;2023-05-16T10:08:31;99346.13;;;21.66;63.12
44839;BME280;30576;42.098;24.876;2023-05-16T10:11:01;99348.78;;;21.80;64.35
44839;BME280;30576;42.098;24.876;2023-05-16T10:13:31;99360.19;;;21.96;64.67
44839;BME280;30576;42.098;24.876;2023-05-16T10:15:58;99347.94;;;22.32;62.16
44839;BME280;30576;42.098;24.876;2023-05-16T10:18:28;99310.91;;;22.10;61.78
44839;BME280;30576;42.098;24.876;2023-05-16T10:20:56;99326.84;;;22.52;61.20
44839;BME280;30576;42.098;24.876;2023-05-16T10:23:24;99286.34;;;22.29;61.51
44839;BME280;30576;42.098;24.876;2023-05-16T10:25:50;99294.94;;;22.34;61.94
44839;BME280;30576;42.098;24.876;2023-05-16T10:28:16;99274.72;;;22.55;61.03
44839;BME280;30576;42.098;24.876;2023-05-16T10:30:43;99277.09;;;22.59;62.01
44839;BME280;30576;42.098;24.876;2023-05-16T10:33:14;99272.00;;;22.67;61.10
44839;BME280;30576;42.098;24.876;2023-05-16T10:35:40;99265.13;;;22.76;59.92
44839;BME280;30576;42.098;24.876;2023-05-16T10:38:07;99280.88;;;22.94;59.35
44839;BME280;30576;42.098;24.876;2023-05-16T10:40:37;99237.91;;;22.81;58.61
44839;BME280;30576;42.098;24.876;2023-05-16T10:43:04;99254.66;;;22.84;60.24
44839;BME280;30576;42.098;24.876;2023-05-16T10:45:30;99251.28;;;22.57;63.43
44839;BME280;30576;42.098;24.876;2023-05-16T10:47:57;99266.41;;;23.07;60.97
44839;BME280;30576;42.098;24.876;2023-05-16T11:01:25;99235.66;;;22.75;62.06
44839;BME280;30576;42.098;24.876;2023-05-16T11:14:19;99257.47;;;23.44;57.86
44839;BME280;30576;42.098;24.876;2023-05-16T11:16:58;99246.84;;;23.42;57.71
44839;BME280;30576;42.098;24.876;2023-05-16T11:24:32;99222.06;;;22.26;62.13
44839;BME280;30576;42.098;24.876;2023-05-16T11:26:59;99242.28;;;22.45;61.80
44839;BME280;30576;42.098;24.876;2023-05-16T11:29:33;99231.44;;;22.46;63.18
44839;BME280;30576;42.098;24.876;2023-05-16T11:32:00;99259.78;;;22.63;62.31
44839;BME280;30576;42.098;24.876;2023-05-16T11:34:26;99209.28;;;21.91;64.65
44839;BME280;30576;42.098;24.876;2023-05-16T11:36:52;99203.50;;;22.23;63.36
44839;BME280;30576;42.098;24.876;2023-05-16T11:39:18;99245.94;;;22.44;62.87
44839;BME280;30576;42.098;24.876;2023-05-16T11:41:44;99244.75;;;22.48;62.67
44839;BME280;30576;42.098;24.876;2023-05-16T11:44:11;99242.75;;;22.76;61.77
44839;BME280;30576;42.098;24.876;2023-05-16T11:46:38;99230.13;;;22.89;61.46
44839;BME280;30576;42.098;24.876;2023-05-16T11:49:06;99238.88;;;23.17;60.46
44839;BME280;30576;42.098;24.876;2023-05-16T11:51:32;99222.91;;;23.27;59.94
44839;BME280;30576;42.098;24.876;2023-05-16T11:53:59;99214.66;;;23.41;58.82
44839;BME280;30576;42.098;24.876;2023-05-16T11:56:26;99233.41;;;23.54;57.80
44839;BME280;30576;42.098;24.876;2023-05-16T11:58:52;99218.47;;;23.50;58.42
44839;BME280;30576;42.098;24.876;2023-05-16T12:01:17;99227.13;;;23.77;58.09
44839;BME280;30576;42.098;24.876;2023-05-16T12:03:43;99210.00;;;23.43;59.13
44839;BME280;30576;42.098;24.876;2023-05-16T12:06:08;99193.38;;;23.14;60.94
44839;BME280;30576;42.098;24.876;2023-05-16T12:08:34;99200.97;;;23.20;59.78
44839;BME280;30576;42.098;24.876;2023-05-16T12:10:59;99191.75;;;23.35;59.08
44839;BME280;30576;42.098;24.876;2023-05-16T12:13:25;99235.41;;;23.63;59.04
44839;BME280;30576;42.098;24.876;2023-05-16T12:15:51;99231.13;;;23.60;59.34
44839;BME280;30576;42.098;24.876;2023-05-16T12:18:17;99243.94;;;23.57;59.71
44839;BME280;30576;42.098;24.876;2023-05-16T12:20:44;99233.00;;;23.71;59.63
44839;BME280;30576;42.098;24.876;2023-05-16T12:23:13;99208.56;;;23.50;60.41
44839;BME280;30576;42.098;24.876;2023-05-16T12:25:43;99202.75;;;23.32;59.93
44839;BME280;30576;42.098;24.876;2023-05-16T12:28:11;99201.31;;;23.39;59.64
44839;BME280;30576;42.098;24.876;2023-05-16T12:30:40;99228.19;;;23.64;59.44
44839;BME280;30576;42.098;24.876;2023-05-16T12:33:14;99215.09;;;23.59;58.73
44839;BME280;30576;42.098;24.876;2023-05-16T12:35:44;99231.72;;;23.53;58.97
44839;BME280;30576;42.098;24.876;2023-05-16T12:38:12;99204.50;;;22.96;60.68
44839;BME280;30576;42.098;24.876;2023-05-16T12:40:40;99222.38;;;22.97;62.57
44839;BME280;30576;42.098;24.876;2023-05-16T12:43:16;99209.31;;;23.04;63.66
44839;BME280;30576;42.098;24.876;2023-05-16T12:45:43;99189.22;;;22.73;62.91
44839;BME280;30576;42.098;24.876;2023-05-16T12:48:13;99195.56;;;22.71;63.21
44839;BME280;30576;42.098;24.876;2023-05-16T12:50:40;99181.94;;;22.62;63.13
44839;BME280;30576;42.098;24.876;2023-05-16T12:53:10;99171.03;;;23.00;62.56
44839;BME280;30576;42.098;24.876;2023-05-16T12:55:36;99172.06;;;23.35;62.28
44839;BME280;30576;42.098;24.876;2023-05-16T12:58:02;99151.66;;;23.44;60.56
44839;BME280;30576;42.098;24.876;2023-05-16T13:00:27;99184.00;;;23.55;60.58
44839;BME280;30576;42.098;24.876;2023-05-16T13:02:53;99122.78;;;23.46;60.53
44839;BME280;30576;42.098;24.876;2023-05-16T13:05:19;99134.88;;;23.40;60.42
44839;BME280;30576;42.098;24.876;2023-05-16T13:07:47;99134.38;;;23.35;61.29
44839;BME280;30576;42.098;24.876;2023-05-16T13:10:16;99146.22;;;23.32;61.71
44839;BME280;30576;42.098;24.876;2023-05-16T13:12:42;99152.31;;;23.23;61.79
44839;BME280;30576;42.098;24.876;2023-05-16T13:15:09;99159.06;;;23.04;63.46
44839;BME280;30576;42.098;24.876;2023-05-16T13:17:39;99143.16;;;23.01;63.63
44839;BME280;30576;42.098;24.876;2023-05-16T13:20:06;99172.16;;;23.22;64.46
44839;BME280;30576;42.098;24.876;2023-05-16T13:22:41;99167.72;;;23.21;64.17
44839;BME280;30576;42.098;24.876;2023-05-16T13:25:08;99175.91;;;23.44;63.70
44839;BME280;30576;42.098;24.876;2023-05-16T13:27:34;99168.88;;;23.76;62.99
44839;BME280;30576;42.098;24.876;2023-05-16T13:30:00;99167.38;;;23.72;61.42
44839;BME280;30576;42.098;24.876;2023-05-16T13:32:26;99142.13;;;23.98;61.29
44839;BME280;30576;42.098;24.876;2023-05-16T13:34:51;99118.09;;;24.17;60.55
44839;BME280;30576;42.098;24.876;2023-05-16T13:37:17;99124.31;;;24.52;59.25
44839;BME280;30576;42.098;24.876;2023-05-16T13:39:43;99115.34;;;24.51;58.67